sensor_id;sensor_type;location;lat;lon;timestamp;P1;durP1;ratioP1;P2;durP2;ratioP2
40256;SDS011;25977;45.462;9.210;2024-02-26T00:01:52;3.97;;;3.45;;
40256;SDS011;25977;45.462;9.210;2024-02-26T00:04:17;6.78;;;3.65;;
40256;SDS011;25977;45.462;9.210;2024-02-26T00:06:43;5.30;;;3.42;;
40256;SDS011;25977;45.462;9.210;2024-02-26T00:09:09;3.63;;;3.28;;
40256;SDS011;25977;45.462;9.210;2024-02-26T00:11:37;6.55;;;3.78;;
40256;SDS011;25977;45.462;9.210;2024-02-26T00:14:03;3.30;;;3.08;;
40256;SDS011;25977;45.462;9.210;2024-02-26T00:16:29;3.08;;;2.83;;
40256;SDS011;25977;45.462;9.210;2024-02-26T00:18:55;3.28;;;2.97;;
40256;SDS011;25977;45.462;9.210;2024-02-26T00:21:21;5.32;;;4.43;;
40256;SDS011;25977;45.462;9.210;2024-02-26T00:23:47;5.57;;;3.50;;
40256;SDS011;25977;45.462;9.210;2024-02-26T00:26:15;4.07;;;3.78;;
40256;SDS011;25977;45.462;9.210;2024-02-26T00:28:41;4.13;;;3.83;;
40256;SDS011;25977;45.462;9.210;2024-02-26T00:31:07;4.00;;;3.00;;
40256;SDS011;25977;45.462;9.210;2024-02-26T00:33:32;4.22;;;3.83;;
40256;SDS011;25977;45.462;9.210;2024-02-26T00:35:58;4.05;;;3.22;;
40256;SDS011;25977;45.462;9.210;2024-02-26T00:38:24;4.18;;;3.58;;
40256;SDS011;25977;45.462;9.210;2024-02-26T00:40:50;4.60;;;2.80;;
40256;SDS011;25977;45.462;9.210;2024-02-26T00:43:16;2.65;;;2.45;;
40256;SDS011;25977;45.462;9.210;2024-02-26T00:45:41;2.75;;;2.55;;
40256;SDS011;25977;45.462;9.210;2024-02-26T00:48:07;3.15;;;2.50;;
40256;SDS011;25977;45.462;9.210;2024-02-26T00:50:36;3.67;;;2.03;;
40256;SDS011;25977;45.462;9.210;2024-02-26T00:53:01;3.65;;;2.30;;
40256;SDS011;25977;45.462;9.210;2024-02-26T00:55:27;1.88;;;1.77;;
40256;SDS011;25977;45.462;9.210;2024-02-26T00:57:53;2.03;;;1.92;;
40256;SDS011;25977;45.462;9.210;2024-02-26T01:00:18;2.13;;;2.03;;
40256;SDS011;25977;45.462;9.210;2024-02-26T01:02:44;2.42;;;2.05;;
40256;SDS011;25977;45.462;9.210;2024-02-26T01:05:13;2.17;;;1.48;;
40256;SDS011;25977;45.462;9.210;2024-02-26T01:07:39;1.27;;;1.23;;
40256;SDS011;25977;45.462;9.210;2024-02-26T01:10:08;3.65;;;1.65;;
40256;SDS011;25977;45.462;9.210;2024-02-26T01:12:34;1.17;;;0.90;;
40256;SDS011;25977;45.462;9.210;2024-02-26T01:15:00;1.55;;;1.40;;
40256;SDS011;25977;45.462;9.210;2024-02-26T01:17:28;3.53;;;2.03;;
40256;SDS011;25977;45.462;9.210;2024-02-26T01:19:53;1.98;;;1.50;;
40256;SDS011;25977;45.462;9.210;2024-02-26T01:22:19;1.65;;;1.08;;
40256;SDS011;25977;45.462;9.210;2024-02-26T01:24:45;2.05;;;1.02;;
40256;SDS011;25977;45.462;9.210;2024-02-26T01:27:11;1.42;;;1.27;;
40256;SDS011;25977;45.462;9.210;2024-02-26T01:29:37;1.60;;;1.30;;
40256;SDS011;25977;45.462;9.210;2024-02-26T01:32:03;1.40;;;1.30;;
40256;SDS011;25977;45.462;9.210;2024-02-26T01:34:30;1.63;;;1.52;;
40256;SDS011;25977;45.462;9.210;2024-02-26T01:36:56;1.58;;;1.48;;
40256;SDS011;25977;45.462;9.210;2024-02-26T01:39:22;3.10;;;1.55;;
40256;SDS011;25977;45.462;9.210;2024-02-26T01:41:48;1.67;;;1.58;;
40256;SDS011;25977;45.462;9.210;2024-02-26T01:44:14;2.35;;;2.00;;
40256;SDS011;25977;45.462;9.210;2024-02-26T01:46:39;2.95;;;2.75;;
40256;SDS011;25977;45.462;9.210;2024-02-26T01:49:05;2.55;;;2.28;;
40256;SDS011;25977;45.462;9.210;2024-02-26T01:51:32;3.35;;;3.15;;
40256;SDS011;25977;45.462;9.210;2024-02-26T01:53:59;2.90;;;2.75;;
40256;SDS011;25977;45.462;9.210;2024-02-26T01:56:27;3.20;;;3.00;;
40256;SDS011;25977;45.462;9.210;2024-02-26T01:58:57;3.60;;;3.35;;
40256;SDS011;25977;45.462;9.210;2024-02-26T02:01:27;6.13;;;3.97;;
40256;SDS011;25977;45.462;9.210;2024-02-26T02:03:56;4.43;;;4.10;;
40256;SDS011;25977;45.462;9.210;2024-02-26T02:06:23;5.57;;;3.55;;
40256;SDS011;25977;45.462;9.210;2024-02-26T02:08:49;4.50;;;4.10;;
40256;SDS011;25977;45.462;9.210;2024-02-26T02:11:16;3.38;;;3.08;;
40256;SDS011;25977;45.462;9.210;2024-02-26T02:13:42;3.20;;;3.00;;
40256;SDS011;25977;45.462;9.210;2024-02-26T02:16:08;4.63;;;3.05;;
40256;SDS011;25977;45.462;9.210;2024-02-26T02:18:33;3.25;;;3.05;;
40256;SDS011;25977;45.462;9.210;2024-02-26T02:21:02;2.92;;;2.72;;
40256;SDS011;25977;45.462;9.210;2024-02-26T02:23:28;3.50;;;3.30;;
40256;SDS011;25977;45.462;9.210;2024-02-26T02:25:54;6.45;;;2.90;;
40256;SDS011;25977;45.462;9.210;2024-02-26T02:28:21;2.88;;;2.67;;
40256;SDS011;25977;45.462;9.210;2024-02-26T02:30:48;6.50;;;3.13;;
40256;SDS011;25977;45.462;9.210;2024-02-26T02:33:14;6.50;;;3.50;;
40256;SDS011;25977;45.462;9.210;2024-02-26T02:35:41;2.65;;;2.55;;
40256;SDS011;25977;45.462;9.210;2024-02-26T02:38:07;2.65;;;2.45;;
40256;SDS011;25977;45.462;9.210;2024-02-26T02:40:33;2.88;;;2.67;;
40256;SDS011;25977;45.462;9.210;2024-02-26T02:42:58;2.28;;;2.10;;
40256;SDS011;25977;45.462;9.210;2024-02-26T02:45:25;2.70;;;2.50;;
40256;SDS011;25977;45.462;9.210;2024-02-26T02:47:51;3.53;;;2.55;;
40256;SDS011;25977;45.462;9.210;2024-02-26T02:50:16;3.55;;;2.30;;
40256;SDS011;25977;45.462;9.210;2024-02-26T02:52:42;2.90;;;2.70;;
40256;SDS011;25977;45.462;9.210;2024-02-26T02:55:08;2.42;;;2.22;;
40256;SDS011;25977;45.462;9.210;2024-02-26T02:57:33;2.47;;;2.33;;
40256;SDS011;25977;45.462;9.210;2024-02-26T02:59:59;1.83;;;1.55;;
40256;SDS011;25977;45.462;9.210;2024-02-26T03:02:25;3.08;;;1.98;;
40256;SDS011;25977;45.462;9.210;2024-02-26T03:04:50;2.30;;;2.03;;
40256;SDS011;25977;45.462;9.210;2024-02-26T03:07:16;2.10;;;1.67;;
40256;SDS011;25977;45.462;9.210;2024-02-26T03:09:42;2.75;;;2.15;;
40256;SDS011;25977;45.462;9.210;2024-02-26T03:12:08;1.83;;;1.73;;
40256;SDS011;25977;45.462;9.210;2024-02-26T03:14:34;2.78;;;1.73;;
40256;SDS011;25977;45.462;9.210;2024-02-26T03:16:59;2.13;;;2.00;;
40256;SDS011;25977;45.462;9.210;2024-02-26T03:19:25;2.97;;;2.38;;
40256;SDS011;25977;45.462;9.210;2024-02-26T03:21:51;2.20;;;2.00;;
40256;SDS011;25977;45.462;9.210;2024-02-26T03:24:16;3.63;;;2.00;;
40256;SDS011;25977;45.462;9.210;2024-02-26T03:26:42;1.60;;;1.50;;
40256;SDS011;25977;45.462;9.210;2024-02-26T03:29:08;2.72;;;1.75;;
40256;SDS011;25977;45.462;9.210;2024-02-26T03:31:34;5.00;;;2.60;;
40256;SDS011;25977;45.462;9.210;2024-02-26T03:34:00;1.80;;;1.70;;
40256;SDS011;25977;45.462;9.210;2024-02-26T03:36:26;1.88;;;1.77;;
40256;SDS011;25977;45.462;9.210;2024-02-26T03:38:52;1.90;;;1.70;;
40256;SDS011;25977;45.462;9.210;2024-02-26T03:41:18;1.88;;;1.77;;
40256;SDS011;25977;45.462;9.210;2024-02-26T03:43:44;2.05;;;1.85;;
40256;SDS011;25977;45.462;9.210;2024-02-26T03:46:10;2.33;;;2.10;;
40256;SDS011;25977;45.462;9.210;2024-02-26T03:48:38;3.38;;;1.73;;
40256;SDS011;25977;45.462;9.210;2024-02-26T03:51:05;2.97;;;2.67;;
40256;SDS011;25977;45.462;9.210;2024-02-26T03:53:31;1.48;;;1.38;;
40256;SDS011;25977;45.462;9.210;2024-02-26T03:55:56;2.22;;;2.13;;
40256;SDS011;25977;45.462;9.210;2024-02-26T03:58:22;1.95;;;1.85;;
40256;SDS011;25977;45.462;9.210;2024-02-26T04:00:48;2.28;;;1.98;;
40256;SDS011;25977;45.462;9.210;2024-02-26T04:03:13;1.85;;;1.52;;
40256;SDS011;25977;45.462;9.210;2024-02-26T04:05:39;3.30;;;1.90;;
40256;SDS011;25977;45.462;9.210;2024-02-26T04:08:05;2.95;;;1.58;;
40256;SDS011;25977;45.462;9.210;2024-02-26T04:10:32;2.38;;;1.98;;
40256;SDS011;25977;45.462;9.210;2024-02-26T04:13:00;2.50;;;1.52;;
40256;SDS011;25977;45.462;9.210;2024-02-26T04:15:26;1.65;;;1.55;;
40256;SDS011;25977;45.462;9.210;2024-02-26T04:17:52;1.75;;;1.30;;
40256;SDS011;25977;45.462;9.210;2024-02-26T04:20:17;2.20;;;1.55;;
40256;SDS011;25977;45.462;9.210;2024-02-26T04:22:43;0.93;;;0.93;;
40256;SDS011;25977;45.462;9.210;2024-02-26T04:25:09;1.60;;;1.50;;
40256;SDS011;25977;45.462;9.210;2024-02-26T04:27:35;1.98;;;1.77;;
40256;SDS011;25977;45.462;9.210;2024-02-26T04:30:00;1.77;;;1.67;;
40256;SDS011;25977;45.462;9.210;2024-02-26T04:32:26;1.40;;;1.40;;
40256;SDS011;25977;45.462;9.210;2024-02-26T04:34:53;1.67;;;1.58;;
40256;SDS011;25977;45.462;9.210;2024-02-26T04:37:19;1.63;;;1.52;;
40256;SDS011;25977;45.462;9.210;2024-02-26T04:39:44;1.65;;;1.55;;
40256;SDS011;25977;45.462;9.210;2024-02-26T04:42:11;1.38;;;1.27;;
40256;SDS011;25977;45.462;9.210;2024-02-26T04:44:40;1.20;;;1.10;;
40256;SDS011;25977;45.462;9.210;2024-02-26T04:47:06;2.80;;;1.52;;
40256;SDS011;25977;45.462;9.210;2024-02-26T04:49:32;1.80;;;1.70;;
40256;SDS011;25977;45.462;9.210;2024-02-26T04:51:59;1.83;;;1.73;;
40256;SDS011;25977;45.462;9.210;2024-02-26T04:54:24;1.50;;;1.33;;
40256;SDS011;25977;45.462;9.210;2024-02-26T04:56:50;1.60;;;1.50;;
40256;SDS011;25977;45.462;9.210;2024-02-26T04:59:16;1.80;;;1.70;;
40256;SDS011;25977;45.462;9.210;2024-02-26T05:01:42;2.90;;;1.67;;
40256;SDS011;25977;45.462;9.210;2024-02-26T05:04:07;2.10;;;2.00;;
40256;SDS011;25977;45.462;9.210;2024-02-26T05:06:33;1.40;;;1.30;;
40256;SDS011;25977;45.462;9.210;2024-02-26T05:08:59;1.58;;;1.48;;
40256;SDS011;25977;45.462;9.210;2024-02-26T05:11:24;1.77;;;1.63;;
40256;SDS011;25977;45.462;9.210;2024-02-26T05:13:50;1.40;;;1.30;;
40256;SDS011;25977;45.462;9.210;2024-02-26T05:16:16;2.35;;;1.63;;
40256;SDS011;25977;45.462;9.210;2024-02-26T05:18:41;1.60;;;1.50;;
40256;SDS011;25977;45.462;9.210;2024-02-26T05:21:07;2.40;;;1.52;;
40256;SDS011;25977;45.462;9.210;2024-02-26T05:23:33;2.13;;;1.80;;
40256;SDS011;25977;45.462;9.210;2024-02-26T05:25:58;4.38;;;1.92;;
40256;SDS011;25977;45.462;9.210;2024-02-26T05:28:24;1.63;;;1.52;;
40256;SDS011;25977;45.462;9.210;2024-02-26T05:30:50;2.28;;;2.08;;
40256;SDS011;25977;45.462;9.210;2024-02-26T05:33:15;2.20;;;2.00;;
40256;SDS011;25977;45.462;9.210;2024-02-26T05:35:41;1.95;;;1.85;;
40256;SDS011;25977;45.462;9.210;2024-02-26T05:38:06;2.55;;;1.88;;
40256;SDS011;25977;45.462;9.210;2024-02-26T05:40:32;1.70;;;1.60;;
40256;SDS011;25977;45.462;9.210;2024-02-26T05:42:58;2.13;;;2.00;;
40256;SDS011;25977;45.462;9.210;2024-02-26T05:45:24;2.10;;;1.85;;
40256;SDS011;25977;45.462;9.210;2024-02-26T05:47:49;1.98;;;1.88;;
40256;SDS011;25977;45.462;9.210;2024-02-26T05:50:15;2.78;;;1.83;;
40256;SDS011;25977;45.462;9.210;2024-02-26T05:52:41;1.48;;;1.38;;
40256;SDS011;25977;45.462;9.210;2024-02-26T05:55:07;1.35;;;1.27;;
40256;SDS011;25977;45.462;9.210;2024-02-26T05:57:38;5.75;;;1.63;;
40256;SDS011;25977;45.462;9.210;2024-02-26T06:00:05;2.85;;;2.15;;
40256;SDS011;25977;45.462;9.210;2024-02-26T06:02:39;2.00;;;1.90;;
40256;SDS011;25977;45.462;9.210;2024-02-26T06:05:04;3.70;;;1.77;;
40256;SDS011;25977;45.462;9.210;2024-02-26T06:07:32;2.38;;;2.13;;
40256;SDS011;25977;45.462;9.210;2024-02-26T06:09:58;2.25;;;2.05;;
40256;SDS011;25977;45.462;9.210;2024-02-26T06:12:23;2.30;;;1.73;;
40256;SDS011;25977;45.462;9.210;2024-02-26T06:14:49;2.38;;;1.92;;
40256;SDS011;25977;45.462;9.210;2024-02-26T06:17:14;2.60;;;2.28;;
40256;SDS011;25977;45.462;9.210;2024-02-26T06:19:40;2.30;;;2.20;;
40256;SDS011;25977;45.462;9.210;2024-02-26T06:22:06;2.35;;;2.22;;
40256;SDS011;25977;45.462;9.210;2024-02-26T06:24:31;3.38;;;3.17;;
40256;SDS011;25977;45.462;9.210;2024-02-26T06:26:57;6.05;;;3.15;;
40256;SDS011;25977;45.462;9.210;2024-02-26T06:29:23;3.42;;;3.22;;
40256;SDS011;25977;45.462;9.210;2024-02-26T06:31:48;2.38;;;2.28;;
40256;SDS011;25977;45.462;9.210;2024-02-26T06:34:15;2.63;;;2.42;;
40256;SDS011;25977;45.462;9.210;2024-02-26T06:36:41;2.72;;;1.98;;
40256;SDS011;25977;45.462;9.210;2024-02-26T06:39:07;3.00;;;2.22;;
40256;SDS011;25977;45.462;9.210;2024-02-26T06:41:33;2.70;;;2.58;;
40256;SDS011;25977;45.462;9.210;2024-02-26T06:43:58;2.38;;;2.17;;
40256;SDS011;25977;45.462;9.210;2024-02-26T06:46:24;7.50;;;1.90;;
40256;SDS011;25977;45.462;9.210;2024-02-26T06:48:51;1.88;;;1.67;;
40256;SDS011;25977;45.462;9.210;2024-02-26T06:51:17;2.63;;;2.08;;
40256;SDS011;25977;45.462;9.210;2024-02-26T06:53:43;1.73;;;1.63;;
40256;SDS011;25977;45.462;9.210;2024-02-26T06:56:08;3.05;;;1.63;;
40256;SDS011;25977;45.462;9.210;2024-02-26T06:58:34;2.58;;;1.70;;
40256;SDS011;25977;45.462;9.210;2024-02-26T07:01:00;1.88;;;1.40;;
40256;SDS011;25977;45.462;9.210;2024-02-26T07:03:25;7.93;;;2.35;;
40256;SDS011;25977;45.462;9.210;2024-02-26T07:05:51;2.05;;;1.95;;
40256;SDS011;25977;45.462;9.210;2024-02-26T07:08:17;2.25;;;1.92;;
40256;SDS011;25977;45.462;9.210;2024-02-26T07:10:43;1.92;;;1.67;;
40256;SDS011;25977;45.462;9.210;2024-02-26T07:13:09;2.28;;;2.10;;
40256;SDS011;25977;45.462;9.210;2024-02-26T07:15:34;1.75;;;1.65;;
40256;SDS011;25977;45.462;9.210;2024-02-26T07:18:00;1.92;;;1.60;;
40256;SDS011;25977;45.462;9.210;2024-02-26T07:20:29;1.95;;;1.85;;
40256;SDS011;25977;45.462;9.210;2024-02-26T07:22:55;2.45;;;2.25;;
40256;SDS011;25977;45.462;9.210;2024-02-26T07:25:21;2.25;;;1.70;;
40256;SDS011;25977;45.462;9.210;2024-02-26T07:27:47;2.17;;;2.00;;
40256;SDS011;25977;45.462;9.210;2024-02-26T07:30:13;3.22;;;1.67;;
40256;SDS011;25977;45.462;9.210;2024-02-26T07:32:39;1.80;;;1.70;;
40256;SDS011;25977;45.462;9.210;2024-02-26T07:35:05;2.22;;;2.00;;
40256;SDS011;25977;45.462;9.210;2024-02-26T07:37:31;4.13;;;2.40;;
40256;SDS011;25977;45.462;9.210;2024-02-26T07:39:56;2.38;;;2.17;;
40256;SDS011;25977;45.462;9.210;2024-02-26T07:42:22;3.65;;;1.75;;
40256;SDS011;25977;45.462;9.210;2024-02-26T07:44:48;1.92;;;1.52;;
40256;SDS011;25977;45.462;9.210;2024-02-26T07:47:13;1.90;;;1.80;;
40256;SDS011;25977;45.462;9.210;2024-02-26T07:49:39;8.35;;;2.22;;
40256;SDS011;25977;45.462;9.210;2024-02-26T07:52:06;2.15;;;1.95;;
40256;SDS011;25977;45.462;9.210;2024-02-26T07:54:31;3.45;;;1.88;;
40256;SDS011;25977;45.462;9.210;2024-02-26T07:56:57;2.08;;;1.88;;
40256;SDS011;25977;45.462;9.210;2024-02-26T07:59:23;3.05;;;2.08;;
40256;SDS011;25977;45.462;9.210;2024-02-26T08:01:52;2.63;;;2.53;;
40256;SDS011;25977;45.462;9.210;2024-02-26T08:04:17;2.05;;;1.88;;
40256;SDS011;25977;45.462;9.210;2024-02-26T08:06:43;4.45;;;1.98;;
40256;SDS011;25977;45.462;9.210;2024-02-26T08:09:09;2.42;;;1.85;;
40256;SDS011;25977;45.462;9.210;2024-02-26T08:11:34;4.60;;;2.30;;
40256;SDS011;25977;45.462;9.210;2024-02-26T08:14:00;2.35;;;2.03;;
40256;SDS011;25977;45.462;9.210;2024-02-26T08:16:26;1.92;;;1.83;;
40256;SDS011;25977;45.462;9.210;2024-02-26T08:18:52;1.92;;;1.70;;
40256;SDS011;25977;45.462;9.210;2024-02-26T08:21:18;8.75;;;2.20;;
40256;SDS011;25977;45.462;9.210;2024-02-26T08:23:43;2.58;;;2.15;;
40256;SDS011;25977;45.462;9.210;2024-02-26T08:26:09;2.53;;;2.33;;
40256;SDS011;25977;45.462;9.210;2024-02-26T08:28:36;3.97;;;3.03;;
40256;SDS011;25977;45.462;9.210;2024-02-26T08:31:02;3.35;;;2.47;;
40256;SDS011;25977;45.462;9.210;2024-02-26T08:33:28;3.63;;;2.50;;
40256;SDS011;25977;45.462;9.210;2024-02-26T08:35:54;3.47;;;2.53;;
40256;SDS011;25977;45.462;9.210;2024-02-26T08:38:20;15.45;;;2.50;;
40256;SDS011;25977;45.462;9.210;2024-02-26T08:40:46;2.67;;;2.47;;
40256;SDS011;25977;45.462;9.210;2024-02-26T08:43:11;3.40;;;2.45;;
40256;SDS011;25977;45.462;9.210;2024-02-26T08:45:37;3.15;;;2.33;;
40256;SDS011;25977;45.462;9.210;2024-02-26T08:48:03;3.28;;;2.97;;
40256;SDS011;25977;45.462;9.210;2024-02-26T08:50:28;3.00;;;2.80;;
40256;SDS011;25977;45.462;9.210;2024-02-26T08:52:54;2.72;;;2.30;;
40256;SDS011;25977;45.462;9.210;2024-02-26T08:55:20;3.47;;;2.50;;
40256;SDS011;25977;45.462;9.210;2024-02-26T08:57:45;5.95;;;3.20;;
40256;SDS011;25977;45.462;9.210;2024-02-26T09:00:12;3.10;;;2.90;;
40256;SDS011;25977;45.462;9.210;2024-02-26T09:02:40;4.60;;;2.92;;
40256;SDS011;25977;45.462;9.210;2024-02-26T09:05:09;7.28;;;2.75;;
40256;SDS011;25977;45.462;9.210;2024-02-26T09:07:35;5.30;;;3.00;;
40256;SDS011;25977;45.462;9.210;2024-02-26T09:10:01;4.65;;;2.35;;
40256;SDS011;25977;45.462;9.210;2024-02-26T09:12:27;4.60;;;3.22;;
40256;SDS011;25977;45.462;9.210;2024-02-26T09:14:53;3.35;;;3.05;;
40256;SDS011;25977;45.462;9.210;2024-02-26T09:17:20;2.63;;;2.42;;
40256;SDS011;25977;45.462;9.210;2024-02-26T09:19:46;8.43;;;3.28;;
40256;SDS011;25977;45.462;9.210;2024-02-26T09:22:12;3.90;;;2.95;;
40256;SDS011;25977;45.462;9.210;2024-02-26T09:24:37;2.53;;;2.08;;
40256;SDS011;25977;45.462;9.210;2024-02-26T09:27:03;3.53;;;2.80;;
40256;SDS011;25977;45.462;9.210;2024-02-26T09:29:29;6.70;;;2.63;;
40256;SDS011;25977;45.462;9.210;2024-02-26T09:31:54;5.82;;;3.28;;
40256;SDS011;25977;45.462;9.210;2024-02-26T09:34:20;4.30;;;2.65;;
40256;SDS011;25977;45.462;9.210;2024-02-26T09:36:46;2.83;;;2.63;;
40256;SDS011;25977;45.462;9.210;2024-02-26T09:39:11;3.92;;;3.63;;
40256;SDS011;25977;45.462;9.210;2024-02-26T09:41:39;5.10;;;3.30;;
40256;SDS011;25977;45.462;9.210;2024-02-26T09:44:05;6.70;;;3.85;;
40256;SDS011;25977;45.462;9.210;2024-02-26T09:46:32;6.78;;;3.40;;
40256;SDS011;25977;45.462;9.210;2024-02-26T09:48:58;5.07;;;3.65;;
40256;SDS011;25977;45.462;9.210;2024-02-26T09:51:24;5.15;;;2.88;;
40256;SDS011;25977;45.462;9.210;2024-02-26T09:53:51;3.17;;;2.88;;
40256;SDS011;25977;45.462;9.210;2024-02-26T09:56:17;7.03;;;3.10;;
40256;SDS011;25977;45.462;9.210;2024-02-26T09:58:43;3.22;;;2.92;;
40256;SDS011;25977;45.462;9.210;2024-02-26T10:01:16;2.63;;;2.42;;
40256;SDS011;25977;45.462;9.210;2024-02-26T10:03:43;5.97;;;2.47;;
40256;SDS011;25977;45.462;9.210;2024-02-26T10:06:13;2.90;;;2.10;;
40256;SDS011;25977;45.462;9.210;2024-02-26T10:08:39;3.08;;;2.67;;
40256;SDS011;25977;45.462;9.210;2024-02-26T10:11:05;1.90;;;1.80;;
40256;SDS011;25977;45.462;9.210;2024-02-26T10:13:34;4.80;;;3.00;;
40256;SDS011;25977;45.462;9.210;2024-02-26T10:16:02;2.95;;;2.35;;
40256;SDS011;25977;45.462;9.210;2024-02-26T10:21:15;3.70;;;2.45;;
40256;SDS011;25977;45.462;9.210;2024-02-26T10:23:43;2.22;;;1.70;;
40256;SDS011;25977;45.462;9.210;2024-02-26T10:26:19;1.95;;;1.80;;
40256;SDS011;25977;45.462;9.210;2024-02-26T10:28:45;3.15;;;2.03;;
40256;SDS011;25977;45.462;9.210;2024-02-26T10:31:11;2.38;;;2.17;;
40256;SDS011;25977;45.462;9.210;2024-02-26T10:33:39;8.93;;;3.00;;
40256;SDS011;25977;45.462;9.210;2024-02-26T10:36:06;2.50;;;2.25;;
40256;SDS011;25977;45.462;9.210;2024-02-26T10:38:33;2.90;;;1.65;;
40256;SDS011;25977;45.462;9.210;2024-02-26T10:40:59;2.17;;;1.77;;
40256;SDS011;25977;45.462;9.210;2024-02-26T10:43:27;2.17;;;1.95;;
40256;SDS011;25977;45.462;9.210;2024-02-26T10:45:55;2.88;;;2.42;;
40256;SDS011;25977;45.462;9.210;2024-02-26T10:48:21;6.35;;;2.42;;
40256;SDS011;25977;45.462;9.210;2024-02-26T10:50:47;3.70;;;1.90;;
40256;SDS011;25977;45.462;9.210;2024-02-26T10:53:17;1.98;;;1.75;;
40256;SDS011;25977;45.462;9.210;2024-02-26T10:55:46;2.83;;;1.83;;
40256;SDS011;25977;45.462;9.210;2024-02-26T11:00:43;3.17;;;1.80;;
40256;SDS011;25977;45.462;9.210;2024-02-26T11:03:12;2.55;;;1.92;;
40256;SDS011;25977;45.462;9.210;2024-02-26T11:05:41;3.97;;;2.10;;
40256;SDS011;25977;45.462;9.210;2024-02-26T11:08:07;2.85;;;2.17;;
40256;SDS011;25977;45.462;9.210;2024-02-26T11:10:34;2.63;;;2.42;;
40256;SDS011;25977;45.462;9.210;2024-02-26T11:13:02;6.47;;;2.22;;
40256;SDS011;25977;45.462;9.210;2024-02-26T11:15:28;3.50;;;2.45;;
40256;SDS011;25977;45.462;9.210;2024-02-26T11:17:54;5.60;;;2.42;;
40256;SDS011;25977;45.462;9.210;2024-02-26T11:20:21;3.38;;;1.88;;
40256;SDS011;25977;45.462;9.210;2024-02-26T11:22:48;2.17;;;2.08;;
40256;SDS011;25977;45.462;9.210;2024-02-26T11:25:13;2.85;;;1.90;;
40256;SDS011;25977;45.462;9.210;2024-02-26T11:27:45;2.47;;;2.28;;
40256;SDS011;25977;45.462;9.210;2024-02-26T11:30:14;2.83;;;2.30;;
40256;SDS011;25977;45.462;9.210;2024-02-26T11:32:43;2.70;;;2.45;;
40256;SDS011;25977;45.462;9.210;2024-02-26T11:35:10;2.75;;;2.55;;
40256;SDS011;25977;45.462;9.210;2024-02-26T11:37:40;10.15;;;2.55;;
40256;SDS011;25977;45.462;9.210;2024-02-26T11:40:10;3.03;;;2.58;;
40256;SDS011;25977;45.462;9.210;2024-02-26T11:42:43;2.90;;;2.60;;
40256;SDS011;25977;45.462;9.210;2024-02-26T11:51:01;2.83;;;2.45;;
40256;SDS011;25977;45.462;9.210;2024-02-26T11:53:29;3.53;;;2.85;;
40256;SDS011;25977;45.462;9.210;2024-02-26T11:59:04;2.90;;;2.70;;
40256;SDS011;25977;45.462;9.210;2024-02-26T12:01:40;3.80;;;2.65;;
40256;SDS011;25977;45.462;9.210;2024-02-26T12:04:17;5.43;;;2.50;;
40256;SDS011;25977;45.462;9.210;2024-02-26T12:06:52;2.92;;;2.72;;
40256;SDS011;25977;45.462;9.210;2024-02-26T12:12:17;4.32;;;2.72;;
40256;SDS011;25977;45.462;9.210;2024-02-26T12:14:50;4.25;;;3.85;;
40256;SDS011;25977;45.462;9.210;2024-02-26T12:17:22;2.72;;;2.53;;
40256;SDS011;25977;45.462;9.210;2024-02-26T12:19:48;3.83;;;3.53;;
40256;SDS011;25977;45.462;9.210;2024-02-26T12:22:15;6.07;;;4.38;;
40256;SDS011;25977;45.462;9.210;2024-02-26T12:24:42;5.28;;;3.20;;
40256;SDS011;25977;45.462;9.210;2024-02-26T12:27:08;5.32;;;4.80;;
40256;SDS011;25977;45.462;9.210;2024-02-26T12:29:33;5.05;;;4.55;;
40256;SDS011;25977;45.462;9.210;2024-02-26T12:31:59;5.70;;;4.28;;
40256;SDS011;25977;45.462;9.210;2024-02-26T12:34:26;10.38;;;5.00;;
40256;SDS011;25977;45.462;9.210;2024-02-26T12:36:53;4.25;;;3.95;;
40256;SDS011;25977;45.462;9.210;2024-02-26T12:39:19;4.95;;;3.40;;
40256;SDS011;25977;45.462;9.210;2024-02-26T12:41:46;2.72;;;2.58;;
40256;SDS011;25977;45.462;9.210;2024-02-26T12:44:17;3.58;;;2.60;;
40256;SDS011;25977;45.462;9.210;2024-02-26T12:46:43;2.65;;;2.30;;
40256;SDS011;25977;45.462;9.210;2024-02-26T12:49:09;5.30;;;3.25;;
40256;SDS011;25977;45.462;9.210;2024-02-26T12:51:40;4.20;;;2.90;;
40256;SDS011;25977;45.462;9.210;2024-02-26T12:54:06;5.57;;;2.83;;
40256;SDS011;25977;45.462;9.210;2024-02-26T12:56:34;7.40;;;3.58;;
40256;SDS011;25977;45.462;9.210;2024-02-26T12:58:59;3.40;;;2.47;;
40256;SDS011;25977;45.462;9.210;2024-02-26T13:01:26;2.58;;;2.45;;
40256;SDS011;25977;45.462;9.210;2024-02-26T13:03:53;5.15;;;2.65;;
40256;SDS011;25977;45.462;9.210;2024-02-26T13:06:19;2.10;;;2.00;;
40256;SDS011;25977;45.462;9.210;2024-02-26T13:08:47;3.65;;;2.40;;
40256;SDS011;25977;45.462;9.210;2024-02-26T13:11:12;2.72;;;2.40;;
40256;SDS011;25977;45.462;9.210;2024-02-26T13:13:39;2.78;;;1.98;;
40256;SDS011;25977;45.462;9.210;2024-02-26T13:16:05;1.73;;;1.63;;
40256;SDS011;25977;45.462;9.210;2024-02-26T13:18:33;1.88;;;1.77;;
40256;SDS011;25977;45.462;9.210;2024-02-26T13:21:09;2.97;;;1.65;;
40256;SDS011;25977;45.462;9.210;2024-02-26T13:23:36;1.73;;;1.63;;
40256;SDS011;25977;45.462;9.210;2024-02-26T13:26:02;1.55;;;1.45;;
40256;SDS011;25977;45.462;9.210;2024-02-26T13:28:28;1.25;;;1.15;;
40256;SDS011;25977;45.462;9.210;2024-02-26T13:30:54;0.80;;;0.70;;
40256;SDS011;25977;45.462;9.210;2024-02-26T13:33:22;3.30;;;1.02;;
40256;SDS011;25977;45.462;9.210;2024-02-26T13:35:48;3.08;;;1.73;;
40256;SDS011;25977;45.462;9.210;2024-02-26T13:38:14;2.25;;;1.50;;
40256;SDS011;25977;45.462;9.210;2024-02-26T13:40:40;2.95;;;1.33;;
40256;SDS011;25977;45.462;9.210;2024-02-26T13:43:05;1.13;;;1.02;;
40256;SDS011;25977;45.462;9.210;2024-02-26T13:45:34;1.88;;;1.23;;
40256;SDS011;25977;45.462;9.210;2024-02-26T13:48:04;1.20;;;1.10;;
40256;SDS011;25977;45.462;9.210;2024-02-26T13:50:35;1.27;;;1.20;;
40256;SDS011;25977;45.462;9.210;2024-02-26T13:53:00;2.65;;;1.38;;
40256;SDS011;25977;45.462;9.210;2024-02-26T13:55:26;1.00;;;0.90;;
40256;SDS011;25977;45.462;9.210;2024-02-26T13:57:54;1.35;;;0.85;;
40256;SDS011;25977;45.462;9.210;2024-02-26T14:00:20;1.15;;;1.05;;
40256;SDS011;25977;45.462;9.210;2024-02-26T14:02:46;1.15;;;1.05;;
40256;SDS011;25977;45.462;9.210;2024-02-26T14:05:12;1.92;;;1.00;;
40256;SDS011;25977;45.462;9.210;2024-02-26T14:07:38;1.83;;;1.33;;
40256;SDS011;25977;45.462;9.210;2024-02-26T14:10:04;1.75;;;1.65;;
40256;SDS011;25977;45.462;9.210;2024-02-26T14:12:30;3.38;;;1.10;;
40256;SDS011;25977;45.462;9.210;2024-02-26T14:14:56;1.42;;;1.33;;
40256;SDS011;25977;45.462;9.210;2024-02-26T14:17:26;1.13;;;1.02;;
40256;SDS011;25977;45.462;9.210;2024-02-26T14:19:52;3.00;;;1.08;;
40256;SDS011;25977;45.462;9.210;2024-02-26T14:22:18;2.90;;;1.23;;
40256;SDS011;25977;45.462;9.210;2024-02-26T14:24:43;2.40;;;1.35;;
40256;SDS011;25977;45.462;9.210;2024-02-26T14:27:10;1.23;;;1.10;;
40256;SDS011;25977;45.462;9.210;2024-02-26T14:29:41;0.98;;;0.82;;
40256;SDS011;25977;45.462;9.210;2024-02-26T14:32:08;1.10;;;1.00;;
40256;SDS011;25977;45.462;9.210;2024-02-26T14:34:34;9.85;;;1.33;;
40256;SDS011;25977;45.462;9.210;2024-02-26T14:37:00;1.40;;;1.30;;
40256;SDS011;25977;45.462;9.210;2024-02-26T14:39:26;1.63;;;1.10;;
40256;SDS011;25977;45.462;9.210;2024-02-26T14:41:52;4.22;;;1.40;;
40256;SDS011;25977;45.462;9.210;2024-02-26T14:44:18;2.88;;;1.40;;
40256;SDS011;25977;45.462;9.210;2024-02-26T14:46:44;2.38;;;0.80;;
40256;SDS011;25977;45.462;9.210;2024-02-26T14:49:09;1.17;;;1.08;;
40256;SDS011;25977;45.462;9.210;2024-02-26T14:51:37;3.60;;;1.45;;
40256;SDS011;25977;45.462;9.210;2024-02-26T14:54:02;1.52;;;1.42;;
40256;SDS011;25977;45.462;9.210;2024-02-26T14:56:28;1.30;;;1.20;;
40256;SDS011;25977;45.462;9.210;2024-02-26T14:58:54;1.10;;;1.10;;
40256;SDS011;25977;45.462;9.210;2024-02-26T15:01:20;1.77;;;1.60;;